Weather History for K4BM - April, 2014

Change the Weather History Date:

Tuesday, April 8, 2014

  Actual Average (KAFF) Record (KAFF)
Temperature  
Mean Temperature 34 °F -  
Max Temperature 44 °F 51 °F 70 °F (2009)
Min Temperature 23 °F 27 °F 17 °F (2003)
Degree Days  
Heating Degree Days 32    
Moisture  
Dew Point 15 °F    
Average Humidity 51    
Maximum Humidity 80    
Minimum Humidity 29    
Precipitation  
Precipitation 0.00 in - - ()
Sea Level Pressure  
Sea Level Pressure 30.40 in    
Wind  
Wind Speed 10 mph (WNW)    
Max Wind Speed 15 mph    
Max Gust Speed 39 mph    
Visibility 10 miles    
Events Thunderstorm    
Averages and records for this station are not official NWS values.
T = Trace of Precipitation, MM = Missing Value Source: NWS Daily Summary

Daily Weather History Graph

Daily Weather History Graph

Search for Another Location

Airport or City:

Trip Planner

Search our weather history database for the weather conditions in past years. The results will help you decide how hot, cold, wet, or windy it might be!

Date:

Astronomy

Apr. 08, 2014 Rise Set
Actual Time 6:35 AM MDT 7:32 PM MDT
Civil Twilight 6:08 AM MDT 7:59 PM MDT
Nautical Twilight 5:36 AM MDT 8:32 PM MDT
Astronomical Twilight 5:02 AM MDT 9:05 PM MDT
Moon 1:31 PM MDT (4/8) 2:47 AM MDT (4/8)
Length of Visible Light 13h 51m
Length of Day
12h 56m
Waxing Gibbous, 63% of the Moon is Illuminated
Apr 8
Waxing Gibbous
Apr 15
Full
Apr 22
Last Quarter
Apr 29
New
May 6
First Quarter

Hourly Weather History & Observations

Time (MDT) Temp. Windchill Dew Point Humidity Pressure Visibility Wind Dir Wind Speed Gust Speed Precip Events Conditions
12:14 AM 24.8 °F 14.0 °F 17.6 °F 74% 30.31 in 10.0 mi NW 11.5 mph 32.2 mph N/A   Clear
12:35 AM 24.8 °F 12.4 °F 17.6 °F 74% 30.31 in 10.0 mi NNW 15.0 mph 32.2 mph N/A   Clear
12:55 AM 24.8 °F 14.6 °F 17.6 °F 74% 30.32 in 10.0 mi NW 10.4 mph 28.8 mph N/A   Clear
1:15 AM 26.6 °F 14.7 °F 17.6 °F 69% 30.32 in 10.0 mi NW 15.0 mph 39.1 mph N/A   Clear
1:35 AM 24.8 °F 13.4 °F 17.6 °F 74% 30.32 in 10.0 mi NW 12.7 mph 31.1 mph N/A   Clear
1:55 AM 24.8 °F 14.0 °F 17.6 °F 74% 30.32 in 10.0 mi NW 11.5 mph 24.2 mph N/A   Clear
2:15 AM 24.8 °F 12.9 °F 17.6 °F 74% 30.31 in 10.0 mi NW 13.8 mph 25.3 mph N/A   Clear
2:35 AM 24.8 °F 14.6 °F 17.6 °F 74% 30.32 in 10.0 mi NW 10.4 mph 26.5 mph N/A   Clear
2:55 AM 24.8 °F 17.9 °F 17.6 °F 74% 30.32 in 10.0 mi West 5.8 mph 19.6 mph N/A   Clear
3:15 AM 24.8 °F 20.5 °F 17.6 °F 74% 30.33 in 10.0 mi NNW 3.5 mph - N/A   Clear
3:34 AM 23.0 °F 17.0 °F 17.6 °F 80% 30.33 in 10.0 mi WSW 4.6 mph - N/A   Clear
3:54 AM 23.0 °F 14.7 °F 17.6 °F 80% 30.33 in 10.0 mi West 6.9 mph - N/A   Clear
4:15 AM 23.0 °F 17.0 °F 17.6 °F 80% 30.34 in 10.0 mi West 4.6 mph 20.7 mph N/A   Clear
4:35 AM 23.0 °F 15.8 °F 15.8 °F 74% 30.34 in 10.0 mi WSW 5.8 mph 20.7 mph N/A   Scattered Clouds
4:55 AM 24.8 °F 14.0 °F 15.8 °F 69% 30.34 in 10.0 mi West 11.5 mph 20.7 mph N/A   Clear
5:14 AM 24.8 °F 16.1 °F 14.0 °F 64% 30.35 in 10.0 mi NW 8.1 mph 21.9 mph N/A   Clear
5:35 AM 23.0 °F 13.1 °F 15.8 °F 74% 30.34 in 10.0 mi WNW 9.2 mph 23.0 mph N/A   Clear
5:54 AM 24.8 °F 14.6 °F 14.0 °F 64% 30.34 in 10.0 mi WNW 10.4 mph 18.4 mph N/A   Scattered Clouds
6:14 AM 24.8 °F 14.6 °F 14.0 °F 64% 30.35 in 10.0 mi WNW 10.4 mph 20.7 mph N/A   Scattered Clouds
6:35 AM 23.0 °F 11.7 °F 14.0 °F 68% 30.35 in 10.0 mi WNW 11.5 mph 20.7 mph N/A   Clear
6:55 AM 24.8 °F 13.4 °F 14.0 °F 64% 30.35 in 10.0 mi WNW 12.7 mph 18.4 mph N/A   Clear
7:14 AM 26.6 °F 16.2 °F 12.2 °F 55% 30.35 in 10.0 mi NW 11.5 mph 25.3 mph N/A   Clear
7:35 AM 26.6 °F 19.1 °F 14.0 °F 59% 30.37 in 10.0 mi NW 6.9 mph 20.7 mph N/A   Clear
7:55 AM 26.6 °F 16.8 °F 14.0 °F 59% 30.37 in 10.0 mi NW 10.4 mph 18.4 mph N/A   Clear
8:15 AM 28.4 °F 18.0 °F 14.0 °F 55% 30.37 in 10.0 mi NW 12.7 mph 23.0 mph N/A   Clear
8:35 AM 30.2 °F 22.6 °F 14.0 °F 51% 30.38 in 10.0 mi NNW 8.1 mph 18.4 mph N/A   Clear
8:55 AM 32.0 °F 25.6 °F 14.0 °F 48% 30.39 in 10.0 mi NW 6.9 mph 16.1 mph N/A   Clear
9:15 AM 32.0 °F 24.8 °F 14.0 °F 48% 30.39 in 10.0 mi NW 8.1 mph - N/A   Clear
9:35 AM 32.0 °F 26.4 °F 14.0 °F 48% 30.40 in 10.0 mi NNW 5.8 mph - N/A   Clear
9:54 AM 32.0 °F 26.4 °F 14.0 °F 48% 30.40 in 10.0 mi NNW 5.8 mph 20.7 mph N/A   Clear
10:14 AM 33.8 °F 29.6 °F 14.0 °F 44% 30.41 in 10.0 mi NW 4.6 mph - N/A   Clear
10:34 AM 33.8 °F 27.0 °F 17.6 °F 52% 30.42 in 10.0 mi WNW 8.1 mph - N/A   Clear
10:55 AM 33.8 °F 25.8 °F 17.6 °F 52% 30.43 in 10.0 mi West 10.4 mph 17.3 mph N/A   Clear
11:15 AM 35.6 °F 29.9 °F 14.0 °F 41% 30.43 in 10.0 mi West 6.9 mph - N/A   Clear
11:35 AM 37.4 °F 32.8 °F 14.0 °F 38% 30.44 in 10.0 mi West 5.8 mph 17.3 mph N/A   Clear
11:55 AM 37.4 °F 32.8 °F 14.0 °F 38% 30.43 in 10.0 mi NW 5.8 mph 16.1 mph N/A   Clear
12:14 PM 37.4 °F 32.8 °F 14.0 °F 38% 30.43 in 10.0 mi NW 5.8 mph - N/A Thunderstorm Thunderstorm
12:34 PM 39.2 °F 33.6 °F 15.8 °F 39% 30.43 in 10.0 mi NNW 8.1 mph - N/A   Clear
12:55 PM 39.2 °F 33.6 °F 15.8 °F 39% 30.43 in 10.0 mi West 8.1 mph 16.1 mph N/A   Clear
1:15 PM 41.0 °F 35.2 °F 14.0 °F 33% 30.43 in 10.0 mi West 9.2 mph - N/A   Clear
1:35 PM 41.0 °F 35.8 °F 14.0 °F 33% 30.43 in 10.0 mi WNW 8.1 mph - N/A   Clear
1:55 PM 42.8 °F 37.5 °F 15.8 °F 34% 30.43 in 10.0 mi WNW 9.2 mph - N/A   Clear
2:15 PM 41.0 °F 34.7 °F 14.0 °F 33% 30.43 in 10.0 mi WNW 10.4 mph 17.3 mph N/A   Clear
2:35 PM 42.8 °F 38.0 °F 14.0 °F 31% 30.43 in 10.0 mi West 8.1 mph 18.4 mph N/A   Clear
2:55 PM 42.8 °F 38.6 °F 14.0 °F 31% 30.43 in 10.0 mi West 6.9 mph 17.3 mph N/A   Clear
3:15 PM 44.6 °F 40.7 °F 15.8 °F 31% 30.42 in 10.0 mi West 6.9 mph - N/A   Clear
3:34 PM 42.8 °F 38.0 °F 14.0 °F 31% 30.42 in 10.0 mi West 8.1 mph 17.3 mph N/A   Clear
3:55 PM 42.8 °F 36.2 °F 15.8 °F 34% 30.42 in 10.0 mi West 12.7 mph 20.7 mph N/A   Clear
4:15 PM 42.8 °F 37.5 °F 14.0 °F 31% 30.42 in 10.0 mi West 9.2 mph 18.4 mph N/A   Clear
4:35 PM 41.0 °F 35.8 °F 14.0 °F 33% 30.43 in 10.0 mi West 8.1 mph 18.4 mph N/A   Clear
4:55 PM 42.8 °F 40.1 °F 14.0 °F 31% 30.43 in 10.0 mi NW 4.6 mph - N/A   Clear
5:14 PM 41.0 °F 38.0 °F 14.0 °F 33% 30.44 in 10.0 mi NNE 4.6 mph - N/A   Clear
5:35 PM 41.0 °F 34.7 °F 12.2 °F 31% 30.43 in 10.0 mi West 10.4 mph 18.4 mph N/A   Clear
5:55 PM 41.0 °F 35.8 °F 10.4 °F 29% 30.44 in 10.0 mi West 8.1 mph - N/A   Clear
6:15 PM 41.0 °F 35.8 °F 12.2 °F 31% 30.44 in 10.0 mi West 8.1 mph - N/A   Clear
6:35 PM 39.2 °F 32.5 °F 10.4 °F 31% 30.44 in 10.0 mi WNW 10.4 mph 20.7 mph N/A   Clear
6:54 PM 37.4 °F 29.8 °F 12.2 °F 36% 30.44 in 10.0 mi WNW 11.5 mph 21.9 mph N/A   Clear
7:15 PM 37.4 °F 30.3 °F 14.0 °F 38% 30.45 in 10.0 mi WNW 10.4 mph - N/A   Clear
7:35 PM 33.8 °F 25.8 °F 14.0 °F 44% 30.45 in 10.0 mi NW 10.4 mph 17.3 mph N/A   Clear
7:55 PM 33.8 °F 25.3 °F 14.0 °F 44% 30.45 in 10.0 mi WNW 11.5 mph 16.1 mph N/A   Clear
8:14 PM 33.8 °F 25.3 °F 15.8 °F 48% 30.46 in 10.0 mi NW 11.5 mph 17.3 mph N/A   Clear
8:34 PM 33.8 °F 25.3 °F 15.8 °F 48% 30.46 in 10.0 mi WNW 11.5 mph - N/A   Clear
8:55 PM 33.8 °F 26.4 °F 14.0 °F 44% 30.46 in 10.0 mi WNW 9.2 mph - N/A   Clear
9:15 PM 33.8 °F 27.0 °F 15.8 °F 48% 30.47 in 10.0 mi WNW 8.1 mph - N/A   Clear
9:35 PM 32.0 °F 25.6 °F 15.8 °F 51% 30.47 in 10.0 mi West 6.9 mph - N/A   Clear
9:55 PM 33.8 °F 27.0 °F 17.6 °F 52% 30.46 in 10.0 mi WNW 8.1 mph - N/A   Clear
10:15 PM 32.0 °F 24.8 °F 17.6 °F 55% 30.45 in 10.0 mi West 8.1 mph - N/A   Clear
10:35 PM 32.0 °F 24.8 °F 17.6 °F 55% 30.45 in 10.0 mi WNW 8.1 mph - N/A   Clear
10:55 PM 32.0 °F 25.6 °F 17.6 °F 55% 30.44 in 10.0 mi West 6.9 mph - N/A   Clear
11:15 PM 32.0 °F 25.6 °F 17.6 °F 55% 30.44 in 10.0 mi West 6.9 mph - N/A   Clear
11:35 PM 32.0 °F 25.6 °F 17.6 °F 55% 30.44 in 10.0 mi WNW 6.9 mph - N/A   Clear
11:55 PM 32.0 °F 26.4 °F 17.6 °F 55% 30.44 in 10.0 mi WNW 5.8 mph - N/A   Clear